Time;durP1;ratioP1;P1;durP2;ratioP2;P2;SDS_P1;SDS_P2;PMS_P1;PMS_P2;Temp;Humidity;BMP_temperature;BMP_pressure;BME280_temperature;BME280_humidity;BME280_pressure;Samples;Min_cycle;Max_cycle;Signal;HPM_P1;HPM_P2
2022/08/07 00:00:18;;;;;;;10.98;8.57;;;;;;;15.01;76.35;99227.25;5031693;28;20495;-75
2022/08/07 00:02:43;;;;;;;9.02;7.85;;;;;;;14.97;76.90;99223.44;5031154;28;20518;-75
2022/08/07 00:05:09;;;;;;;10.98;9.07;;;;;;;14.98;76.61;99228.69;5030982;28;20466;-74
2022/08/07 00:07:34;;;;;;;13.18;9.85;;;;;;;15.01;76.96;99230.00;5031482;28;20021;-73
2022/08/07 00:10:01;;;;;;;10.73;9.63;;;;;;;14.99;77.02;99229.50;5031296;28;20108;-73
2022/08/07 00:12:26;;;;;;;9.13;8.10;;;;;;;15.00;76.86;99228.38;5031816;28;20029;-73
2022/08/07 00:14:52;;;;;;;9.82;8.52;;;;;;;14.97;76.96;99218.75;5030638;28;20144;-73
2022/08/07 00:17:17;;;;;;;11.07;8.35;;;;;;;14.98;77.00;99216.81;5031201;28;20813;-73
2022/08/07 00:19:44;;;;;;;9.20;8.27;;;;;;;14.98;77.04;99219.56;5032473;28;20022;-73
2022/08/07 00:22:09;;;;;;;9.65;7.63;;;;;;;14.95;77.28;99217.41;5029762;28;20025;-73
2022/08/07 00:24:35;;;;;;;10.40;7.72;;;;;;;14.91;77.27;99219.97;5030712;28;20036;-73
2022/08/07 00:27:00;;;;;;;8.02;7.10;;;;;;;14.90;77.20;99229.41;5031424;28;20545;-73
2022/08/07 00:29:28;;;;;;;9.23;7.22;;;;;;;14.90;77.05;99229.41;5029793;28;20040;-74
2022/08/07 00:31:53;;;;;;;8.50;7.60;;;;;;;14.88;77.10;99226.13;5031549;28;20083;-73
2022/08/07 00:34:19;;;;;;;10.25;7.97;;;;;;;14.84;76.95;99225.91;5029979;28;20025;-74
2022/08/07 00:36:44;;;;;;;8.32;7.40;;;;;;;14.81;77.06;99226.53;5031344;28;20021;-73
2022/08/07 00:39:13;;;;;;;8.73;7.82;;;;;;;14.78;77.14;99232.66;5030721;28;20057;-74
2022/08/07 00:41:38;;;;;;;10.02;7.97;;;;;;;14.75;77.17;99233.28;5030668;28;20026;-73
2022/08/07 00:44:04;;;;;;;10.02;7.45;;;;;;;14.70;77.26;99239.69;5030858;28;20364;-73
2022/08/07 00:46:30;;;;;;;10.15;7.38;;;;;;;14.67;76.90;99231.97;5032886;28;20026;-73
2022/08/07 00:49:00;;;;;;;7.75;6.10;;;;;;;14.64;76.96;99231.78;5032747;28;20053;-74
2022/08/07 00:51:28;;;;;;;7.75;6.43;;;;;;;14.61;77.09;99226.88;5032394;28;20021;-73
2022/08/07 00:53:53;;;;;;;9.27;7.55;;;;;;;14.58;77.25;99231.88;5028973;28;20032;-73
2022/08/07 00:56:18;;;;;;;9.45;7.72;;;;;;;14.55;77.28;99235.25;5035572;28;20033;-73
2022/08/07 00:58:44;;;;;;;9.55;7.63;;;;;;;14.50;77.10;99229.81;5031654;28;20104;-73
2022/08/07 01:01:10;;;;;;;10.77;7.90;;;;;;;14.48;77.03;99223.78;5030954;28;20061;-73
2022/08/07 01:03:36;;;;;;;8.80;7.30;;;;;;;14.44;77.38;99228.28;5028772;28;20033;-73
2022/08/07 01:06:02;;;;;;;8.18;7.35;;;;;;;14.40;77.13;99232.78;5028764;28;20399;-73
2022/08/07 01:08:27;;;;;;;8.07;7.13;;;;;;;14.37;77.16;99223.13;5026871;28;20433;-73
2022/08/07 01:10:53;;;;;;;10.52;7.85;;;;;;;14.36;77.35;99234.50;5033434;28;20085;-73
2022/08/07 01:13:20;;;;;;;11.27;9.57;;;;;;;14.36;77.23;99246.34;5032641;28;20105;-74
2022/08/07 01:15:48;;;;;;;10.18;8.50;;;;;;;14.36;77.45;99235.31;5030941;28;20112;-73
2022/08/07 01:18:14;;;;;;;9.35;8.23;;;;;;;14.37;77.57;99227.84;5030671;28;21435;-73
2022/08/07 01:20:45;;;;;;;10.90;8.18;;;;;;;14.38;77.50;99235.81;5031519;28;20033;-73
2022/08/07 01:23:11;;;;;;;10.57;8.38;;;;;;;14.39;77.64;99237.47;5031384;28;20530;-74
2022/08/07 01:25:39;;;;;;;10.68;9.07;;;;;;;14.41;77.63;99228.88;5029782;28;20025;-73
2022/08/07 01:28:05;;;;;;;10.20;8.60;;;;;;;14.40;77.86;99225.28;5030425;28;20029;-73
2022/08/07 01:30:31;;;;;;;12.13;8.40;;;;;;;14.43;77.85;99223.88;5029620;28;20516;-73
2022/08/07 01:32:58;;;;;;;10.20;8.32;;;;;;;14.44;77.95;99228.28;5030081;28;20399;-73
2022/08/07 01:35:23;;;;;;;9.75;8.70;;;;;;;14.43;78.19;99230.22;5033966;28;20090;-73
2022/08/07 01:37:49;;;;;;;10.55;8.20;;;;;;;14.42;77.81;99230.53;5032396;28;20483;-73
2022/08/07 01:40:19;;;;;;;12.48;9.07;;;;;;;14.42;77.81;99219.50;5030874;28;20116;-74
2022/08/07 01:42:45;;;;;;;13.00;9.52;;;;;;;14.43;77.98;99223.88;5032788;28;20045;-74
2022/08/07 01:45:11;;;;;;;10.27;8.23;;;;;;;14.44;77.85;99222.78;5031304;28;20427;-74
2022/08/07 01:47:36;;;;;;;8.98;7.55;;;;;;;14.43;78.02;99215.59;5031420;28;20570;-74
2022/08/07 01:50:03;;;;;;;9.40;8.30;;;;;;;14.43;78.26;99216.41;5031751;28;20097;-74
2022/08/07 01:52:31;;;;;;;9.10;7.80;;;;;;;14.41;77.88;99212.34;5032537;28;20121;-73
2022/08/07 01:54:58;;;;;;;13.27;10.23;;;;;;;14.38;77.76;99219.25;5035427;28;20086;-73
2022/08/07 01:57:27;;;;;;;12.05;8.30;;;;;;;14.37;77.92;99225.09;5032392;28;20108;-73
2022/08/07 01:59:59;;;;;;;9.63;7.80;;;;;;;14.32;78.20;99222.41;5031306;28;20405;-74
2022/08/07 02:02:34;;;;;;;8.00;7.18;;;;;;;14.26;77.95;99217.00;5027804;28;20034;-73
2022/08/07 02:05:04;;;;;;;7.75;6.95;;;;;;;14.21;77.88;99219.03;5030655;28;20021;-74
2022/08/07 02:07:35;;;;;;;8.50;7.60;;;;;;;14.17;78.02;99229.03;5032102;28;20511;-73
2022/08/07 02:10:03;;;;;;;9.48;8.15;;;;;;;14.12;77.99;99210.59;5030079;28;20096;-73
2022/08/07 02:12:32;;;;;;;8.63;7.53;;;;;;;14.08;77.99;99213.16;5031977;28;20028;-73
2022/08/07 02:14:59;;;;;;;;;;;;;;;14.05;78.12;99221.22;5033422;28;20108;-73
2022/08/07 02:17:25;;;;;;;10.02;8.93;;;;;;;14.02;78.22;99217.09;5033839;28;19991;-73
2022/08/07 02:19:53;;;;;;;10.88;9.13;;;;;;;13.98;78.32;99214.16;5033520;28;20024;-73
2022/08/07 02:22:22;;;;;;;11.43;9.25;;;;;;;13.95;78.11;99216.66;5029434;28;20033;-73
2022/08/07 02:24:51;;;;;;;15.32;10.23;;;;;;;13.93;78.22;99221.66;5031369;28;20029;-73
2022/08/07 02:27:19;;;;;;;10.25;9.10;;;;;;;13.90;78.26;99231.38;5031340;28;20029;-73
2022/08/07 02:29:47;;;;;;;9.52;8.40;;;;;;;13.89;78.26;99226.97;5030472;28;20076;-74
2022/08/07 02:32:15;;;;;;;8.93;8.13;;;;;;;13.85;78.09;99225.94;5031496;28;20383;-73
2022/08/07 02:34:41;;;;;;;10.40;9.00;;;;;;;13.82;78.28;99223.75;5037010;28;20072;-73
2022/08/07 02:37:08;;;;;;;11.02;8.35;;;;;;;13.79;78.30;99218.84;5034837;28;20116;-73
2022/08/07 02:39:37;;;;;;;9.77;8.65;;;;;;;13.74;78.10;99214.25;5036491;28;20088;-73
2022/08/07 02:42:03;;;;;;;8.77;7.88;;;;;;;13.74;77.98;99224.44;5032074;28;20487;-73
2022/08/07 02:44:30;;;;;;;10.30;8.57;;;;;;;13.73;78.23;99231.06;5030021;28;20064;-73
2022/08/07 02:46:57;;;;;;;9.45;8.07;;;;;;;13.74;78.25;99230.78;5034582;28;20028;-73
2022/08/07 02:49:24;;;;;;;10.25;8.48;;;;;;;13.78;78.43;99233.75;5031901;28;20033;-73
2022/08/07 02:51:51;;;;;;;9.95;8.52;;;;;;;13.76;78.53;99231.31;5032470;28;20072;-73
2022/08/07 02:54:21;;;;;;;10.00;8.77;;;;;;;13.75;78.56;99218.63;5032827;28;20124;-73
2022/08/07 02:56:48;;;;;;;11.50;8.95;;;;;;;13.73;78.18;99214.53;5030215;28;20022;-73
2022/08/07 02:59:18;;;;;;;12.23;9.20;;;;;;;13.73;78.44;99209.84;5031022;28;20461;-72
2022/08/07 03:01:44;;;;;;;13.45;10.13;;;;;;;13.72;78.59;99221.16;5031623;28;20025;-73
2022/08/07 03:04:12;;;;;;;10.45;9.18;;;;;;;13.72;78.49;99224.75;5030841;28;20017;-73
2022/08/07 03:06:38;;;;;;;11.75;9.30;;;;;;;13.69;78.54;99226.16;5030992;28;20026;-73
2022/08/07 03:09:06;;;;;;;12.45;9.80;;;;;;;13.67;78.47;99222.06;5030069;28;20016;-73
2022/08/07 03:11:33;;;;;;;12.18;9.43;;;;;;;13.65;78.79;99216.81;5029919;28;20116;-72
2022/08/07 03:14:02;;;;;;;10.80;9.48;;;;;;;13.63;78.59;99227.38;5030677;28;20554;-73
2022/08/07 03:16:29;;;;;;;10.30;8.90;;;;;;;13.61;78.73;99224.09;5027054;28;20403;-73
2022/08/07 03:18:55;;;;;;;11.23;8.98;;;;;;;13.59;78.69;99220.81;5036719;28;20116;-73
2022/08/07 03:21:21;;;;;;;10.73;8.77;;;;;;;13.60;78.69;99222.44;5030973;28;20140;-73
2022/08/07 03:23:50;;;;;;;10.25;8.25;;;;;;;13.59;78.61;99218.03;5033842;28;20395;-74
2022/08/07 03:26:18;;;;;;;10.48;8.45;;;;;;;13.58;78.72;99227.44;5035326;28;20483;-73
2022/08/07 03:28:45;;;;;;;10.77;8.85;;;;;;;13.57;78.76;99225.78;5032525;28;20499;-73
2022/08/07 03:31:17;;;;;;;10.85;8.48;;;;;;;13.58;79.11;99215.56;5027998;28;20064;-73
2022/08/07 03:33:43;;;;;;;11.48;9.00;;;;;;;13.58;78.83;99221.91;5029983;28;20047;-73
2022/08/07 03:36:13;;;;;;;12.95;8.60;;;;;;;13.59;78.89;99217.22;5029262;28;20030;-73
2022/08/07 03:38:40;;;;;;;10.68;8.50;;;;;;;13.57;78.85;99220.28;5029733;28;20025;-73
2022/08/07 03:41:06;;;;;;;10.13;8.13;;;;;;;13.57;78.91;99219.44;5026218;28;20045;-73
2022/08/07 03:43:33;;;;;;;9.55;8.07;;;;;;;13.57;78.86;99220.28;5028129;28;20050;-73
2022/08/07 03:46:01;;;;;;;12.55;8.93;;;;;;;13.53;78.76;99225.53;5030622;28;20029;-73
2022/08/07 03:48:28;;;;;;;9.43;8.45;;;;;;;13.54;79.15;99223.63;5029743;28;20072;-73
2022/08/07 03:50:55;;;;;;;9.40;8.48;;;;;;;13.55;79.09;99231.59;5028967;28;20037;-74
2022/08/07 03:53:21;;;;;;;10.15;8.35;;;;;;;13.57;79.29;99227.72;5031611;28;20142;-70
2022/08/07 03:55:48;;;;;;;11.45;8.75;;;;;;;13.59;79.14;99226.31;5032945;28;20546;-71
2022/08/07 03:58:14;;;;;;;10.73;8.65;;;;;;;13.60;79.05;99227.13;5031852;28;20049;-70
2022/08/07 04:00:41;;;;;;;8.48;7.68;;;;;;;13.60;79.83;99238.97;5032149;28;20057;-71
2022/08/07 04:03:07;;;;;;;9.60;8.40;;;;;;;13.59;79.20;99233.75;5031243;28;20030;-71
2022/08/07 04:05:35;;;;;;;9.15;7.93;;;;;;;13.60;79.58;99241.72;5029932;28;20029;-71
2022/08/07 04:08:02;;;;;;;9.77;8.77;;;;;;;13.60;79.22;99238.97;5030256;28;20118;-71
2022/08/07 04:10:29;;;;;;;9.48;8.55;;;;;;;13.60;78.96;99247.25;5032202;28;20099;-71
2022/08/07 04:12:55;;;;;;;11.52;8.90;;;;;;;13.63;79.80;99243.91;5031243;28;20041;-71
2022/08/07 04:15:20;;;;;;;12.68;9.57;;;;;;;13.63;79.71;99246.66;5033733;28;20029;-72
2022/08/07 04:17:46;;;;;;;12.98;9.27;;;;;;;13.63;79.34;99246.66;5031800;28;20033;-71
2022/08/07 04:20:12;;;;;;;9.68;8.68;;;;;;;13.66;79.32;99250.75;5032345;28;20428;-71
2022/08/07 04:22:41;;;;;;;11.68;9.02;;;;;;;13.67;79.21;99244.13;5030130;28;20571;-71
2022/08/07 04:25:08;;;;;;;11.87;9.83;;;;;;;13.72;79.29;99240.44;5030206;28;20495;-71
2022/08/07 04:27:34;;;;;;;10.90;8.98;;;;;;;13.72;80.02;99245.97;5059518;28;20455;-72
2022/08/07 04:29:59;;;;;;;12.95;9.90;;;;;;;13.70;79.35;99243.53;5027860;28;20032;-72
2022/08/07 04:32:25;;;;;;;11.75;9.40;;;;;;;13.72;79.39;99252.31;5043309;28;20458;-71
2022/08/07 04:34:52;;;;;;;13.10;10.20;;;;;;;13.73;79.25;99244.84;5024539;28;20041;-71
2022/08/07 04:37:18;;;;;;;13.75;10.05;;;;;;;13.75;79.65;99240.69;5031599;28;20037;-71
2022/08/07 04:39:43;;;;;;;11.43;10.23;;;;;;;13.79;79.44;99238.16;5034206;28;20140;-71
2022/08/07 04:42:09;;;;;;;13.45;10.45;;;;;;;13.82;79.54;99248.59;5038246;28;20049;-71
2022/08/07 04:44:34;;;;;;;12.45;10.15;;;;;;;13.85;79.74;99247.97;5034460;28;20032;-71
2022/08/07 04:47:28;;;;;;;11.98;10.23;;;;;;;13.90;79.46;99253.44;5026801;28;20029;-71
2022/08/07 04:50:08;;;;;;;14.52;10.82;;;;;;;13.94;79.12;99251.72;5033200;28;20061;-71
2022/08/07 04:52:57;;;;;;;12.65;10.10;;;;;;;14.01;79.31;99253.28;5032999;28;20036;-71
2022/08/07 04:55:29;;;;;;;13.20;10.50;;;;;;;14.06;79.43;99245.72;5034083;28;20065;-71
2022/08/07 04:58:01;;;;;;;13.45;11.23;;;;;;;14.09;79.09;99250.66;5031292;28;20581;-71
2022/08/07 05:00:42;;;;;;;14.45;11.55;;;;;;;14.14;79.37;99264.38;5032370;28;20025;-71
2022/08/07 05:03:20;;;;;;;14.88;10.75;;;;;;;14.20;79.14;99256.00;5031042;28;20040;-71
2022/08/07 05:06:09;;;;;;;17.93;12.73;;;;;;;14.25;79.19;99265.00;5029560;28;20029;-71
2022/08/07 05:09:00;;;;;;;18.23;12.87;;;;;;;14.33;79.30;99271.78;5029065;28;20084;-72
2022/08/07 05:11:28;;;;;;;19.83;13.10;;;;;;;14.41;79.11;99259.25;5037714;28;20684;-71
2022/08/07 05:14:10;;;;;;;19.55;14.15;;;;;;;14.44;79.15;99258.66;5033357;28;20021;-71
2022/08/07 05:16:39;;;;;;;17.88;13.95;;;;;;;14.47;79.07;99266.28;5032207;28;20542;-72
2022/08/07 05:19:12;;;;;;;18.33;13.52;;;;;;;14.50;79.12;99273.16;5032679;28;20025;-72
2022/08/07 05:21:43;;;;;;;17.70;12.85;;;;;;;14.54;78.87;99274.19;5029252;28;20053;-72
2022/08/07 05:24:12;;;;;;;15.63;12.73;;;;;;;14.59;79.01;99276.88;5035424;28;20064;-72
2022/08/07 05:26:38;;;;;;;20.75;13.25;;;;;;;14.64;78.92;99275.97;5036662;28;20037;-72
2022/08/07 05:29:07;;;;;;;17.38;13.27;;;;;;;14.68;79.00;99271.47;5035417;28;20132;-73
2022/08/07 05:31:37;;;;;;;20.27;15.47;;;;;;;14.74;79.01;99273.06;5033157;28;20545;-72
2022/08/07 05:34:05;;;;;;;15.85;12.90;;;;;;;14.83;79.34;99276.75;5032105;28;20029;-72
2022/08/07 05:36:32;;;;;;;16.10;12.45;;;;;;;14.91;79.27;99283.50;5030030;28;20037;-72
2022/08/07 05:38:59;;;;;;;16.48;12.05;;;;;;;14.98;79.17;99274.81;5031969;28;20025;-72
2022/08/07 05:41:24;;;;;;;15.02;12.35;;;;;;;15.06;78.93;99284.34;5033505;28;20034;-73
2022/08/07 05:43:53;;;;;;;14.18;11.68;;;;;;;15.10;79.10;99285.34;5033624;28;20058;-72
2022/08/07 05:46:20;;;;;;;15.57;12.13;;;;;;;15.16;78.72;99279.44;5031972;28;20033;-72
2022/08/07 05:48:50;;;;;;;15.43;11.63;;;;;;;15.23;78.80;99283.75;5032353;28;20442;-71
2022/08/07 05:51:17;;;;;;;15.55;10.55;;;;;;;15.33;79.13;99275.22;5035855;28;20033;-72
2022/08/07 05:53:43;;;;;;;13.27;11.38;;;;;;;15.42;78.97;99284.44;5032375;28;20475;-72
2022/08/07 05:56:10;;;;;;;13.80;10.32;;;;;;;15.48;79.12;99285.97;5034977;28;20049;-72
2022/08/07 05:58:37;;;;;;;12.68;10.45;;;;;;;15.53;78.81;99284.22;5036524;28;20483;-72
2022/08/07 06:01:04;;;;;;;12.95;10.50;;;;;;;15.54;78.78;99286.66;5031347;28;20060;-72
2022/08/07 06:03:31;;;;;;;11.70;10.40;;;;;;;15.56;78.58;99284.41;5035578;28;20075;-72
2022/08/07 06:05:57;;;;;;;12.30;9.63;;;;;;;15.61;78.67;99286.25;5032720;28;20532;-72
2022/08/07 06:08:24;;;;;;;13.80;9.65;;;;;;;15.62;78.47;99288.72;5030629;28;20029;-72
2022/08/07 06:10:50;;;;;;;10.68;9.63;;;;;;;15.68;78.50;99283.06;5031673;28;20072;-72
2022/08/07 06:13:16;;;;;;;11.10;9.60;;;;;;;15.69;78.50;99287.47;5033280;28;20037;-72
2022/08/07 06:15:43;;;;;;;9.63;8.63;;;;;;;15.70;78.13;99280.81;5032916;28;20029;-72
2022/08/07 06:18:12;;;;;;;10.82;9.63;;;;;;;15.72;78.43;99290.44;5033649;28;20077;-72
2022/08/07 06:20:38;;;;;;;14.00;9.80;;;;;;;15.77;78.20;99292.28;5032703;28;20080;-72
2022/08/07 06:23:07;;;;;;;11.85;9.00;;;;;;;15.83;78.81;99292.97;5032769;28;20478;-72
2022/08/07 06:25:35;;;;;;;9.73;8.73;;;;;;;15.89;78.29;99289.00;5027166;28;20029;-72
2022/08/07 06:28:08;;;;;;;10.52;9.10;;;;;;;15.99;78.54;99285.16;5034280;28;20029;-72
2022/08/07 06:30:34;;;;;;;11.23;8.75;;;;;;;16.10;78.31;99285.78;5031960;28;20061;-72
2022/08/07 06:33:00;;;;;;;9.73;8.50;;;;;;;16.18;78.75;99280.28;5031855;28;20052;-72
2022/08/07 06:35:26;;;;;;;9.40;8.02;;;;;;;16.26;78.46;99284.25;5035488;28;20039;-72
2022/08/07 06:37:52;;;;;;;10.15;9.05;;;;;;;16.35;78.24;99282.38;5033901;28;20033;-73
2022/08/07 06:40:18;;;;;;;9.10;8.07;;;;;;;16.47;78.41;99287.34;5032135;28;20033;-73
2022/08/07 06:42:47;;;;;;;9.45;7.80;;;;;;;16.56;78.42;99279.06;5030375;28;20103;-73
2022/08/07 06:45:14;;;;;;;;;;;;;;;16.66;78.15;99283.56;5035265;28;20120;-72
2022/08/07 06:47:40;;;;;;;10.88;7.47;;;;;;;16.75;77.95;99284.41;5031926;28;19924;-73
2022/08/07 06:50:07;;;;;;;9.27;7.05;;;;;;;16.85;78.13;99288.03;5030523;28;20033;-73
2022/08/07 06:52:35;;;;;;;7.45;6.70;;;;;;;16.99;77.79;99290.75;5029501;28;20041;-72
2022/08/07 06:55:22;;;;;;;9.88;6.50;;;;;;;17.15;78.06;99291.97;5035662;28;20040;-73
2022/08/07 06:57:49;;;;;;;9.68;6.68;;;;;;;17.30;78.12;99287.13;5031578;28;20060;-72
2022/08/07 07:00:19;;;;;;;7.32;6.50;;;;;;;17.43;78.01;99291.72;5030914;28;20029;-73
2022/08/07 07:02:46;;;;;;;8.80;6.50;;;;;;;17.58;77.80;99298.78;5029331;28;20056;-73
2022/08/07 07:05:12;;;;;;;8.40;5.95;;;;;;;17.74;77.78;99296.38;5034504;28;20041;-73
2022/08/07 07:07:37;;;;;;;8.07;6.60;;;;;;;17.91;77.35;99295.59;5030723;28;20101;-74
2022/08/07 07:10:03;;;;;;;8.20;6.45;;;;;;;17.96;76.03;99291.84;5031926;28;20113;-73
2022/08/07 07:12:31;;;;;;;7.53;6.78;;;;;;;17.88;76.09;99289.88;5030373;28;20120;-73
2022/08/07 07:15:05;;;;;;;10.05;6.30;;;;;;;17.89;75.97;99295.09;5032759;28;20432;-73
2022/08/07 07:17:46;;;;;;;7.88;6.25;;;;;;;17.90;75.97;99293.13;5031009;28;20096;-73
2022/08/07 07:20:17;;;;;;;7.68;5.82;;;;;;;17.92;75.65;99296.41;5033017;28;20463;-74
2022/08/07 07:22:44;;;;;;;8.07;6.40;;;;;;;17.93;75.52;99293.28;5029655;28;20112;-74
2022/08/07 07:25:11;;;;;;;8.30;6.13;;;;;;;17.95;75.43;99293.78;5030708;28;20036;-74
2022/08/07 07:27:44;;;;;;;7.57;5.75;;;;;;;17.97;75.52;99285.16;5031981;28;20033;-74
2022/08/07 07:30:11;;;;;;;8.38;5.93;;;;;;;17.99;75.38;99299.53;5029274;28;20083;-74
2022/08/07 07:32:39;;;;;;;6.55;5.75;;;;;;;18.04;75.35;99299.38;5032193;28;20117;-74
2022/08/07 07:35:09;;;;;;;6.40;5.47;;;;;;;18.08;75.40;99294.00;5034423;28;20060;-74
2022/08/07 07:37:37;;;;;;;7.13;5.10;;;;;;;18.10;75.33;99292.53;5029197;28;20022;-74
2022/08/07 07:40:06;;;;;;;7.00;5.70;;;;;;;18.11;75.08;99293.34;5035134;28;20030;-74
2022/08/07 07:42:33;;;;;;;6.55;5.28;;;;;;;18.15;74.94;99289.56;5030351;28;20539;-73
2022/08/07 07:45:04;;;;;;;6.22;5.10;;;;;;;18.23;74.76;99284.34;5034420;28;20021;-73
2022/08/07 07:47:33;;;;;;;5.15;4.43;;;;;;;18.32;74.90;99284.38;5032981;28;20025;-73
2022/08/07 07:50:00;;;;;;;5.53;4.43;;;;;;;18.41;74.68;99282.38;5031702;28;20032;-73
2022/08/07 07:52:27;;;;;;;5.35;4.50;;;;;;;18.49;74.34;99272.41;5029226;28;20026;-72
2022/08/07 07:54:54;;;;;;;4.15;3.75;;;;;;;18.55;74.08;99279.41;5030515;28;20021;-73
2022/08/07 07:57:23;;;;;;;4.43;3.80;;;;;;;18.65;74.32;99281.03;5038688;28;20053;-74
2022/08/07 07:59:50;;;;;;;6.60;4.43;;;;;;;18.72;73.95;99281.34;5030875;28;20028;-73
2022/08/07 08:02:19;;;;;;;4.97;3.67;;;;;;;18.79;73.74;99278.06;5025545;28;20513;-74
2022/08/07 08:04:45;;;;;;;5.07;3.80;;;;;;;18.85;73.06;99280.31;5032033;28;20033;-74
2022/08/07 08:07:12;;;;;;;5.63;3.80;;;;;;;18.86;72.87;99275.59;5030855;28;20056;-74
2022/08/07 08:09:39;;;;;;;4.22;3.72;;;;;;;18.96;72.85;99283.56;5029936;28;20084;-73
2022/08/07 08:12:05;;;;;;;5.50;3.70;;;;;;;19.08;72.34;99273.72;5030185;28;20050;-73
2022/08/07 08:14:35;;;;;;;4.35;3.95;;;;;;;19.22;72.08;99279.06;5031566;28;20109;-73
2022/08/07 08:17:01;;;;;;;4.82;3.83;;;;;;;19.36;71.91;99278.84;5034655;28;20380;-73
2022/08/07 08:19:29;;;;;;;5.90;4.03;;;;;;;19.48;71.63;99278.94;5034605;28;20377;-73
2022/08/07 08:27:33;;;;;;;3.83;3.10;;;;;;;19.75;68.02;99274.84;5042300;28;20394;-75
2022/08/07 08:30:05;;;;;;;3.83;3.20;;;;;;;19.90;68.38;99270.66;5034434;28;20032;-75
2022/08/07 08:32:35;;;;;;;4.63;2.95;;;;;;;20.08;67.66;99267.75;5034042;28;20021;-75
2022/08/07 08:35:03;;;;;;;6.50;2.97;;;;;;;20.28;68.05;99268.88;5033020;28;20120;-74
2022/08/07 08:37:31;;;;;;;6.20;2.50;;;;;;;20.38;65.48;99262.06;5034238;28;20017;-77
2022/08/07 08:39:56;;;;;;;3.30;2.47;;;;;;;20.43;65.56;99274.97;5037273;28;20495;-75
2022/08/07 08:42:30;;;;;;;3.15;2.30;;;;;;;20.40;65.56;99276.47;5042178;28;20132;-75
2022/08/07 08:45:17;;;;;;;2.85;2.10;;;;;;;20.37;65.82;99269.63;5035682;28;20028;-75
2022/08/07 08:47:48;;;;;;;3.00;2.17;;;;;;;20.41;65.63;99277.28;5035678;28;20026;-75
2022/08/07 08:50:20;;;;;;;3.78;2.40;;;;;;;20.46;65.31;99275.09;5036976;28;20026;-75
2022/08/07 08:53:04;;;;;;;3.22;2.03;;;;;;;20.55;65.20;99288.13;5040564;28;20029;-75
2022/08/07 08:55:53;;;;;;;2.60;2.40;;;;;;;20.60;64.10;99283.16;5032670;28;20025;-76
2022/08/07 08:58:31;;;;;;;3.40;2.30;;;;;;;20.63;63.90;99279.69;5036469;28;20063;-75
2022/08/07 09:01:18;;;;;;;3.70;2.35;;;;;;;20.67;63.56;99279.81;5033321;28;20164;-78
2022/08/07 09:04:14;;;;;;;4.40;2.00;;;;;;;20.75;63.32;99290.03;5033326;28;20502;-75
2022/08/07 09:07:23;;;;;;;2.80;2.05;;;;;;;20.82;62.40;99283.94;5032272;28;20652;-75
2022/08/07 09:09:54;;;;;;;3.30;2.10;;;;;;;20.78;62.38;99285.81;5015176;28;20045;-75
2022/08/07 09:12:25;;;;;;;2.72;1.80;;;;;;;20.74;61.54;99284.84;5032755;28;20087;-75
2022/08/07 09:15:20;;;;;;;3.50;1.73;;;;;;;20.72;61.41;99284.34;5032791;28;20036;-75
2022/08/07 09:18:00;;;;;;;2.00;1.55;;;;;;;20.81;61.18;99277.56;5033220;28;20061;-76
2022/08/07 09:20:29;;;;;;;2.28;1.70;;;;;;;20.90;61.28;99280.22;5035982;28;20471;-76
2022/08/07 09:23:04;;;;;;;2.38;1.95;;;;;;;20.94;60.41;99274.78;5034470;28;20521;-74
2022/08/07 09:25:38;;;;;;;3.42;1.95;;;;;;;20.99;60.42;99273.75;5029797;28;20058;-74
2022/08/07 09:28:09;;;;;;;2.72;1.85;;;;;;;21.00;59.75;99273.38;5032331;28;20390;-74
2022/08/07 09:30:44;;;;;;;4.47;2.10;;;;;;;21.09;59.09;99273.31;5032817;28;20025;-74
2022/08/07 09:33:21;;;;;;;5.43;1.90;;;;;;;21.29;58.15;99263.19;5031575;28;20033;-75
2022/08/07 09:36:09;;;;;;;5.97;2.40;;;;;;;21.44;57.86;99267.25;5033433;28;20033;-74
2022/08/07 09:38:53;;;;;;;3.60;2.08;;;;;;;21.53;58.38;99269.91;5032482;28;20071;-75
2022/08/07 09:41:27;;;;;;;4.28;2.50;;;;;;;21.55;55.96;99262.84;5035791;28;20061;-74
2022/08/07 09:43:58;;;;;;;3.30;1.85;;;;;;;21.56;56.80;99263.63;5032369;28;20091;-75
2022/08/07 09:46:54;;;;;;;3.42;2.55;;;;;;;21.60;56.64;99261.78;5034855;28;20511;-75
2022/08/07 09:49:44;;;;;;;4.28;2.20;;;;;;;21.67;56.48;99259.25;5061149;28;20028;-75
2022/08/07 09:52:16;;;;;;;2.88;2.00;;;;;;;21.73;56.70;99253.41;5031937;28;20029;-75
2022/08/07 09:54:56;;;;;;;4.10;1.60;;;;;;;21.80;55.93;99259.22;5031991;28;20112;-75
2022/08/07 09:57:52;;;;;;;3.05;1.10;;;;;;;21.86;55.52;99250.25;5030083;28;20036;-76
2022/08/07 10:00:20;;;;;;;3.88;1.98;;;;;;;21.92;55.00;99242.41;5035397;28;20360;-74
2022/08/07 10:03:23;;;;;;;2.85;2.03;;;;;;;22.00;55.78;99249.84;5028049;28;20032;-74
2022/08/07 10:06:06;;;;;;;5.15;3.00;;;;;;;22.14;54.56;99248.66;5029746;28;20030;-74
2022/08/07 10:08:59;;;;;;;5.20;3.70;;;;;;;22.21;55.00;99248.03;5033193;28;20033;-74
2022/08/07 10:11:33;;;;;;;3.30;2.05;;;;;;;22.34;54.23;99240.41;5035870;28;20037;-74
2022/08/07 10:14:26;;;;;;;2.67;2.20;;;;;;;22.47;55.44;99233.63;5029464;28;20061;-74
2022/08/07 10:17:10;;;;;;;2.25;1.65;;;;;;;22.60;55.46;99232.38;5027435;28;20034;-74
2022/08/07 10:19:48;;;;;;;4.10;3.20;;;;;;;22.65;53.81;99228.50;5029081;28;20079;-74
2022/08/07 10:22:31;;;;;;;8.70;5.00;;;;;;;22.74;54.48;99228.31;5029000;28;20095;-74
2022/08/07 10:25:33;;;;;;;6.45;3.63;;;;;;;22.94;55.16;99228.44;5034119;28;20043;-74
2022/08/07 10:28:16;;;;;;;3.47;2.40;;;;;;;23.15;54.44;99220.56;5028630;28;20049;-74
2022/08/07 10:30:53;;;;;;;5.88;4.63;;;;;;;23.23;53.84;99218.75;5029619;28;20061;-74
2022/08/07 10:33:40;;;;;;;4.13;3.63;;;;;;;23.24;53.70;99217.59;5029715;28;20033;-74
2022/08/07 10:36:37;;;;;;;4.28;3.33;;;;;;;23.14;54.86;99221.72;5027333;28;20045;-74
2022/08/07 10:39:21;;;;;;;4.75;3.72;;;;;;;23.15;53.97;99212.16;5028093;28;20040;-74
2022/08/07 10:42:02;;;;;;;5.43;4.43;;;;;;;23.05;54.22;99212.72;5030399;28;20033;-74
2022/08/07 10:44:44;;;;;;;8.80;4.65;;;;;;;22.99;53.95;99214.97;5025053;28;20033;-75
2022/08/07 10:47:30;;;;;;;11.05;6.53;;;;;;;23.05;53.81;99207.94;5030191;28;20021;-74
2022/08/07 10:50:11;;;;;;;5.50;3.30;;;;;;;23.05;54.76;99210.72;5029107;28;20034;-75
2022/08/07 10:53:13;;;;;;;3.05;2.70;;;;;;;23.13;54.42;99208.13;5029013;28;20033;-74
2022/08/07 10:55:49;;;;;;;4.00;3.22;;;;;;;23.19;53.26;99212.25;5029399;28;20029;-74
2022/08/07 10:58:19;;;;;;;5.75;3.10;;;;;;;23.16;53.32;99216.59;5030991;28;20068;-73
2022/08/07 11:01:00;;;;;;;4.82;3.28;;;;;;;23.23;52.55;99204.78;5028933;28;20013;-73
2022/08/07 11:03:36;;;;;;;4.70;2.90;;;;;;;23.34;53.04;99200.25;5033156;28;20025;-73
2022/08/07 11:06:12;;;;;;;4.05;2.60;;;;;;;23.46;52.24;99198.50;5027763;28;20025;-75
2022/08/07 11:08:56;;;;;;;4.07;2.45;;;;;;;23.44;52.23;99200.84;5036175;28;20048;-75
2022/08/07 11:11:24;;;;;;;2.97;2.50;;;;;;;23.36;51.23;99199.91;5026362;28;20037;-78
2022/08/07 11:13:56;;;;;;;3.47;2.20;;;;;;;23.26;51.94;99200.44;5028479;28;20458;-80
2022/08/07 11:16:27;;;;;;;3.05;2.15;;;;;;;23.19;52.33;99199.06;5032450;28;20479;-76
2022/08/07 11:19:10;;;;;;;4.13;2.60;;;;;;;23.15;52.01;99195.38;5038074;28;20033;-77
2022/08/07 11:21:44;;;;;;;5.43;2.90;;;;;;;23.08;51.46;99189.59;5024514;28;20064;-77
2022/08/07 11:24:28;;;;;;;3.80;2.20;;;;;;;23.03;51.55;99187.06;5029601;28;20037;-76
2022/08/07 11:27:23;;;;;;;6.68;3.80;;;;;;;23.12;51.54;99187.69;5029225;28;20032;-78
2022/08/07 11:30:13;;;;;;;5.75;2.90;;;;;;;23.23;52.19;99187.97;5008765;28;20495;-77
2022/08/07 11:32:47;;;;;;;3.95;3.53;;;;;;;23.29;51.44;99194.13;5027976;28;20640;-86
2022/08/07 11:35:22;;;;;;;5.88;3.25;;;;;;;23.25;51.49;99194.03;5025915;28;20025;-84
2022/08/07 11:38:12;;;;;;;3.53;2.05;;;;;;;23.24;51.02;99192.41;5028322;28;20033;-84
2022/08/07 11:41:02;;;;;;;6.80;3.92;;;;;;;23.16;50.54;99180.22;5032213;28;20103;-87
2022/08/07 11:43:31;;;;;;;3.15;2.30;;;;;;;23.09;50.62;99174.44;5030270;28;20046;-78
2022/08/07 11:46:14;;;;;;;4.28;2.53;;;;;;;23.09;50.59;99177.25;5028784;28;20426;-78
2022/08/07 11:49:16;;;;;;;5.45;3.60;;;;;;;23.25;50.97;99180.03;5029012;28;20047;-78
2022/08/07 11:52:03;;;;;;;6.75;4.93;;;;;;;23.29;50.46;99171.75;5031052;28;20522;-73
2022/08/07 11:54:49;;;;;;;3.15;2.60;;;;;;;23.29;49.67;99180.94;5035289;28;20121;-76